createdAt,value
2022-11-06T00:00:43.180Z,11.28
2022-11-06T00:03:10.132Z,11.21
2022-11-06T00:06:02.937Z,11.12
2022-11-06T00:08:36.448Z,11.14
2022-11-06T00:11:08.932Z,10.82
2022-11-06T00:13:35.981Z,11.10
2022-11-06T00:16:06.154Z,10.95
2022-11-06T00:18:33.729Z,10.75
2022-11-06T00:21:22.729Z,10.76
2022-11-06T00:23:50.722Z,11.04
2022-11-06T00:26:18.951Z,10.84
2022-11-06T00:28:58.451Z,10.62
2022-11-06T00:31:26.883Z,11.17
2022-11-06T00:33:54.352Z,11.29
2022-11-06T00:36:23.183Z,11.00
2022-11-06T00:38:56.173Z,11.11
2022-11-06T00:41:24.314Z,11.44
2022-11-06T00:43:52.265Z,10.60
2022-11-06T00:46:20.337Z,11.33
2022-11-06T00:48:48.104Z,11.20
2022-11-06T00:51:16.845Z,11.10
2022-11-06T00:53:44.497Z,11.84
2022-11-06T00:56:16.192Z,11.60
2022-11-06T00:58:43.371Z,12.09
2022-11-06T01:01:11.932Z,11.28
2022-11-06T01:03:39.474Z,11.72
2022-11-06T01:06:10.687Z,10.84
2022-11-06T01:08:38.720Z,10.97
2022-11-06T01:11:10.131Z,11.31
2022-11-06T01:13:38.012Z,11.13
2022-11-06T01:16:11.751Z,11.10
2022-11-06T01:18:39.313Z,11.20
2022-11-06T01:21:10.642Z,11.41
2022-11-06T01:23:40.053Z,11.54
2022-11-06T01:26:11.394Z,10.91
2022-11-06T01:28:44.589Z,11.49
2022-11-06T01:31:12.732Z,10.33
2022-11-06T01:33:42.332Z,11.18
2022-11-06T01:36:10.245Z,11.00
2022-11-06T01:38:36.982Z,11.25
2022-11-06T01:41:05.194Z,11.23
2022-11-06T01:43:50.554Z,11.81
2022-11-06T01:46:19.241Z,11.99
2022-11-06T01:48:48.099Z,12.01
2022-11-06T01:51:17.692Z,11.48
2022-11-06T01:53:44.913Z,11.93
2022-11-06T01:56:13.314Z,11.97
2022-11-06T01:58:42.808Z,11.67
2022-11-06T02:01:10.572Z,11.28
2022-11-06T02:03:43.451Z,11.17
2022-11-06T02:06:11.010Z,11.60
2022-11-06T02:08:37.831Z,11.13
2022-11-06T02:11:04.643Z,11.47
2022-11-06T02:13:52.563Z,10.77
2022-11-06T02:16:27.264Z,10.43
2022-11-06T02:19:22.801Z,10.88
2022-11-06T02:22:00.241Z,11.25
2022-11-06T02:24:44.863Z,10.96
2022-11-06T02:27:23.172Z,11.18
2022-11-06T02:29:55.932Z,10.64
2022-11-06T02:32:38.886Z,11.12
2022-11-06T02:35:16.477Z,10.80
2022-11-06T02:37:47.910Z,11.39
2022-11-06T02:40:21.413Z,11.50
2022-11-06T02:42:51.173Z,10.78
2022-11-06T02:45:22.220Z,10.85
2022-11-06T02:47:50.913Z,10.89
2022-11-06T02:50:21.562Z,11.09
2022-11-06T02:52:50.350Z,10.88
2022-11-06T02:55:36.311Z,10.73
2022-11-06T02:58:26.162Z,11.39
2022-11-06T03:01:04.811Z,11.04
2022-11-06T03:03:33.422Z,11.50
2022-11-06T03:06:07.494Z,11.26
2022-11-06T03:08:39.102Z,11.09
2022-11-06T03:11:07.442Z,11.10
2022-11-06T03:13:42.370Z,11.12
2022-11-06T03:26:47.028Z,10.81
2022-11-06T03:31:13.032Z,10.44
2022-11-06T03:39:05.902Z,10.89
2022-11-06T03:45:46.930Z,10.23
2022-11-06T03:57:59.331Z,11.05
2022-11-06T04:00:26.582Z,10.79
2022-11-06T04:03:09.449Z,10.84
2022-11-06T04:05:38.479Z,10.70
2022-11-06T04:08:24.502Z,10.91
2022-11-06T04:11:11.084Z,9.89
2022-11-06T04:14:03.211Z,10.40
2022-11-06T04:16:41.062Z,9.98
2022-11-06T04:19:16.772Z,9.85
2022-11-06T04:21:50.062Z,10.10
2022-11-06T04:24:54.743Z,9.86
2022-11-06T04:27:47.521Z,10.46
2022-11-06T04:30:20.821Z,9.86
2022-11-06T04:32:54.604Z,9.92
2022-11-06T04:35:28.780Z,9.69
2022-11-06T04:38:01.334Z,9.75
2022-11-06T04:40:51.203Z,9.81
2022-11-06T04:43:33.222Z,9.82
2022-11-06T04:46:12.874Z,9.75
2022-11-06T04:48:41.612Z,9.56
2022-11-06T04:51:09.632Z,9.63
2022-11-06T04:53:38.082Z,9.97
2022-11-06T04:56:10.482Z,9.49
2022-11-06T04:58:37.310Z,9.83
2022-11-06T05:01:04.590Z,10.17
2022-11-06T05:03:31.423Z,10.04
2022-11-06T05:05:58.588Z,9.89
2022-11-06T05:08:25.380Z,10.08
2022-11-06T05:10:55.080Z,9.75
2022-11-06T05:13:22.051Z,9.90
2022-11-06T05:15:48.947Z,10.10
2022-11-06T05:18:15.992Z,10.44
2022-11-06T05:20:43.082Z,9.89
2022-11-06T05:23:09.918Z,9.80
2022-11-06T05:25:38.633Z,10.16
2022-11-06T05:28:08.112Z,9.81
2022-11-06T05:30:37.873Z,10.45
2022-11-06T05:33:07.741Z,10.55
2022-11-06T05:35:34.629Z,10.04
2022-11-06T05:38:04.714Z,10.31
2022-11-06T05:40:31.675Z,10.82
2022-11-06T05:42:58.712Z,10.27
2022-11-06T05:45:26.273Z,10.03
2022-11-06T05:47:53.039Z,10.15
2022-11-06T05:50:20.062Z,10.61
2022-11-06T05:52:46.924Z,10.28
2022-11-06T05:55:15.323Z,10.29
2022-11-06T05:57:42.840Z,10.94
2022-11-06T06:00:13.688Z,11.16
2022-11-06T06:02:41.090Z,11.25
2022-11-06T06:05:13.111Z,10.39
2022-11-06T06:07:39.835Z,10.78
2022-11-06T06:10:07.571Z,10.99
2022-11-06T06:12:39.676Z,10.67
2022-11-06T06:15:07.313Z,10.40
2022-11-06T06:17:34.167Z,10.87
2022-11-06T06:20:01.504Z,11.05
2022-11-06T06:22:28.312Z,10.96
2022-11-06T06:24:55.196Z,10.18
2022-11-06T06:27:21.998Z,10.51
2022-11-06T06:29:49.211Z,10.36
2022-11-06T06:32:16.224Z,10.13
2022-11-06T06:34:43.151Z,9.65
2022-11-06T06:37:10.036Z,9.59
2022-11-06T06:39:37.273Z,10.30
2022-11-06T06:42:07.622Z,10.05
2022-11-06T06:44:36.715Z,10.73
2022-11-06T06:47:04.923Z,10.21
2022-11-06T06:49:32.803Z,10.26
2022-11-06T06:51:59.563Z,10.84
2022-11-06T06:54:26.335Z,10.63
2022-11-06T06:56:53.166Z,10.39
2022-11-06T06:59:20.004Z,9.81
2022-11-06T07:01:47.158Z,10.29
2022-11-06T07:04:16.077Z,10.71
2022-11-06T07:06:42.981Z,9.54
2022-11-06T07:09:09.714Z,10.78
2022-11-06T07:11:38.211Z,11.20
2022-11-06T07:14:06.262Z,10.68
2022-11-06T07:19:29.607Z,11.10
2022-11-06T07:22:02.292Z,10.53
2022-11-06T07:24:32.783Z,10.33
2022-11-06T07:30:02.569Z,10.76
2022-11-06T07:32:33.646Z,10.54
2022-11-06T07:38:10.856Z,10.39
2022-11-06T07:40:37.914Z,9.86
2022-11-06T07:43:05.385Z,10.32
2022-11-06T07:45:32.153Z,10.58
2022-11-06T07:48:10.676Z,10.66
2022-11-06T07:50:38.925Z,10.48
2022-11-06T07:53:05.682Z,10.46
2022-11-06T07:55:33.881Z,10.42
2022-11-06T07:58:02.255Z,10.30
2022-11-06T08:00:29.261Z,10.37
2022-11-06T08:02:56.767Z,10.06
2022-11-06T08:05:24.754Z,11.05
2022-11-06T08:07:56.554Z,10.93
2022-11-06T08:10:23.303Z,11.19
2022-11-06T08:12:50.153Z,10.32
2022-11-06T08:15:24.163Z,10.58
2022-11-06T08:17:51.034Z,10.52
2022-11-06T08:20:18.843Z,10.84
2022-11-06T08:22:45.642Z,10.88
2022-11-06T08:25:12.792Z,10.39
2022-11-06T08:27:39.805Z,10.29
2022-11-06T08:30:06.921Z,10.15
2022-11-06T08:32:34.908Z,10.54
2022-11-06T08:35:01.756Z,10.56
2022-11-06T08:37:29.920Z,10.21
2022-11-06T08:39:59.479Z,10.39
2022-11-06T08:42:27.013Z,10.08
2022-11-06T08:44:53.837Z,10.08
2022-11-06T08:47:22.352Z,10.36
2022-11-06T08:49:49.621Z,10.68
2022-11-06T08:52:19.143Z,10.87
2022-11-06T08:54:46.072Z,10.44
2022-11-06T08:57:12.857Z,10.72
2022-11-06T08:59:39.761Z,10.60
2022-11-06T09:02:11.386Z,10.64
2022-11-06T09:04:41.509Z,10.89
2022-11-06T09:07:11.623Z,11.21
2022-11-06T09:09:39.791Z,10.95
2022-11-06T09:16:04.036Z,10.83
2022-11-06T09:19:17.140Z,10.89
2022-11-06T09:28:47.416Z,10.34
2022-11-06T09:34:37.885Z,10.26
2022-11-06T09:37:05.188Z,10.10
2022-11-06T09:39:33.447Z,9.98
2022-11-06T09:42:24.854Z,10.05
2022-11-06T09:44:55.197Z,10.15
2022-11-06T09:47:27.393Z,10.35
2022-11-06T09:49:55.849Z,10.36
2022-11-06T09:52:25.442Z,10.80
2022-11-06T09:55:03.302Z,11.29
2022-11-06T09:57:44.243Z,11.42
2022-11-06T10:00:14.891Z,11.53
2022-11-06T10:02:58.669Z,11.32
2022-11-06T10:05:33.334Z,11.84
2022-11-06T10:08:04.704Z,11.62
2022-11-06T10:10:42.461Z,12.02
2022-11-06T10:13:22.955Z,11.89
2022-11-06T10:15:54.995Z,11.40
2022-11-06T10:18:26.315Z,11.18
2022-11-06T10:21:02.521Z,11.00
2022-11-06T10:23:39.503Z,10.93
2022-11-06T10:33:18.063Z,10.72
2022-11-06T10:48:30.507Z,11.44
2022-11-06T10:50:59.325Z,11.37
2022-11-06T10:54:06.234Z,11.68
2022-11-06T10:56:35.662Z,11.86
2022-11-06T10:59:02.963Z,11.68
2022-11-06T11:01:30.329Z,11.86
2022-11-06T11:03:57.540Z,11.97
2022-11-06T11:06:24.488Z,12.10
2022-11-06T11:08:52.901Z,11.30
2022-11-06T11:11:25.034Z,11.62
2022-11-06T11:14:01.490Z,11.79
2022-11-06T11:16:54.654Z,11.60
2022-11-06T11:19:26.106Z,12.05
2022-11-06T11:21:58.426Z,12.24
2022-11-06T11:24:25.838Z,12.13
2022-11-06T11:26:54.453Z,12.33
2022-11-06T11:29:26.323Z,12.02
2022-11-06T11:32:13.005Z,11.98
2022-11-06T11:34:50.227Z,11.72
2022-11-06T11:37:37.203Z,12.13
2022-11-06T11:40:23.036Z,12.17
2022-11-06T11:42:49.866Z,11.79
2022-11-06T11:45:26.246Z,12.71
2022-11-06T11:47:53.122Z,12.22
2022-11-06T11:50:27.483Z,12.46
2022-11-06T11:55:47.260Z,12.61
2022-11-06T11:58:23.464Z,13.04
2022-11-06T12:00:59.909Z,12.15
2022-11-06T12:03:34.714Z,11.89
2022-11-06T12:06:07.662Z,12.74
2022-11-06T12:08:36.826Z,12.80
2022-11-06T12:11:04.801Z,12.66
2022-11-06T12:13:32.595Z,12.59
2022-11-06T12:16:04.858Z,12.66
2022-11-06T12:18:34.902Z,12.24
2022-11-06T12:21:08.783Z,12.93
2022-11-06T12:23:52.919Z,13.49
2022-11-06T12:26:35.213Z,13.24
2022-11-06T12:29:14.561Z,13.08
2022-11-06T12:31:48.001Z,13.46
2022-11-06T12:34:28.944Z,13.13
2022-11-06T12:37:09.201Z,13.36
2022-11-06T12:39:39.841Z,12.68
2022-11-06T12:42:09.683Z,13.30
2022-11-06T12:44:42.842Z,12.29
2022-11-06T12:47:30.122Z,12.58
2022-11-06T12:50:15.651Z,13.27
2022-11-06T12:52:47.771Z,13.10
2022-11-06T12:55:26.101Z,13.54
2022-11-06T12:58:12.416Z,13.55
2022-11-06T13:00:56.695Z,13.10
2022-11-06T13:03:48.974Z,12.45
2022-11-06T13:06:30.500Z,12.65
2022-11-06T13:09:19.992Z,12.49
2022-11-06T13:12:02.919Z,13.34
2022-11-06T13:14:52.695Z,13.02
2022-11-06T13:17:39.644Z,13.15
2022-11-06T13:20:15.581Z,12.94
2022-11-06T13:23:00.040Z,13.35
2022-11-06T13:25:31.170Z,13.28
2022-11-06T13:28:39.334Z,13.55
2022-11-06T13:31:08.619Z,13.11
2022-11-06T13:33:50.931Z,13.29
2022-11-06T13:36:19.790Z,13.38
2022-11-06T13:39:06.752Z,13.53
2022-11-06T13:41:34.213Z,12.79
2022-11-06T13:44:02.004Z,13.04
2022-11-06T13:46:58.241Z,13.12
2022-11-06T13:49:43.852Z,12.64
2022-11-06T13:52:17.343Z,13.13
2022-11-06T13:54:55.654Z,13.44
2022-11-06T13:57:32.650Z,12.68
2022-11-06T14:00:18.323Z,12.86
2022-11-06T14:02:57.269Z,12.62
2022-11-06T14:05:45.202Z,12.68
2022-11-06T14:08:17.341Z,12.78
2022-11-06T14:10:53.071Z,12.72
2022-11-06T14:13:24.934Z,12.44
2022-11-06T14:19:02.872Z,12.34
2022-11-06T14:27:51.401Z,13.32
2022-11-06T14:31:10.914Z,12.85
2022-11-06T14:33:54.740Z,13.04
2022-11-06T14:39:48.365Z,12.94
2022-11-06T14:46:22.308Z,13.39
2022-11-06T14:49:08.543Z,13.47
2022-11-06T14:57:37.963Z,12.32
2022-11-06T15:00:14.191Z,13.07
2022-11-06T15:02:41.912Z,13.22
2022-11-06T15:05:15.161Z,13.40
2022-11-06T15:10:52.704Z,13.36
2022-11-06T15:13:24.372Z,13.57
2022-11-06T15:16:04.345Z,14.14
2022-11-06T15:18:35.949Z,14.24
2022-11-06T15:21:05.352Z,14.32
2022-11-06T15:23:35.102Z,14.17
2022-11-06T15:26:23.558Z,14.44
2022-11-06T15:29:09.345Z,14.22
2022-11-06T15:31:37.091Z,14.63
2022-11-06T15:34:06.843Z,14.80
2022-11-06T15:36:37.889Z,14.81
2022-11-06T15:39:24.641Z,14.83
2022-11-06T15:41:53.284Z,14.60
2022-11-06T15:44:22.575Z,14.84
2022-11-06T15:47:02.255Z,14.93
2022-11-06T15:49:29.753Z,14.94
2022-11-06T15:52:00.304Z,14.87
2022-11-06T15:54:44.389Z,14.84
2022-11-06T15:57:23.005Z,14.89
2022-11-06T15:59:50.273Z,14.88
2022-11-06T16:02:20.686Z,14.74
2022-11-06T16:04:48.871Z,14.71
2022-11-06T16:07:16.691Z,14.60
2022-11-06T16:09:44.176Z,14.81
2022-11-06T16:12:12.933Z,14.88
2022-11-06T16:14:41.103Z,14.69
2022-11-06T16:17:23.421Z,14.61
2022-11-06T16:19:58.786Z,14.35
2022-11-06T16:22:33.632Z,14.47
2022-11-06T16:25:06.028Z,14.55
2022-11-06T16:27:36.902Z,14.49
2022-11-06T16:30:06.714Z,14.73
2022-11-06T16:32:39.103Z,14.61
2022-11-06T16:35:26.043Z,14.57
2022-11-06T16:38:07.591Z,14.67
2022-11-06T16:40:47.679Z,14.74
2022-11-06T16:43:16.941Z,14.79
2022-11-06T16:45:54.677Z,14.85
2022-11-06T16:48:35.850Z,14.89
2022-11-06T16:51:07.393Z,14.92
2022-11-06T16:53:47.630Z,14.76
2022-11-06T16:56:17.353Z,14.76
2022-11-06T16:58:51.006Z,14.85
2022-11-06T17:01:21.540Z,14.89
2022-11-06T17:04:08.203Z,14.96
2022-11-06T17:06:36.015Z,14.85
2022-11-06T17:09:21.707Z,15.00
2022-11-06T17:11:55.097Z,14.99
2022-11-06T17:14:22.994Z,14.99
2022-11-06T17:16:51.744Z,14.48
2022-11-06T17:19:19.978Z,14.39
2022-11-06T17:21:47.129Z,14.34
2022-11-06T17:27:02.874Z,13.82
2022-11-06T17:29:29.794Z,14.02
2022-11-06T17:31:58.483Z,13.60
2022-11-06T17:34:25.439Z,13.43
2022-11-06T17:36:52.254Z,13.25
2022-11-06T17:39:20.350Z,13.26
2022-11-06T17:41:47.221Z,13.67
2022-11-06T17:44:15.347Z,13.78
2022-11-06T17:46:43.681Z,13.92
2022-11-06T17:49:17.082Z,13.42
2022-11-06T17:52:17.529Z,12.67
2022-11-06T17:54:44.739Z,12.88
2022-11-06T17:57:17.422Z,12.37
2022-11-06T17:59:48.143Z,11.73
2022-11-06T18:02:29.728Z,11.20
2022-11-06T18:05:04.319Z,11.88
2022-11-06T18:07:31.467Z,11.99
2022-11-06T18:09:58.250Z,11.76
2022-11-06T18:12:31.001Z,11.85
2022-11-06T18:15:03.672Z,12.18
2022-11-06T18:17:37.285Z,12.21
2022-11-06T18:20:05.837Z,12.60
2022-11-06T18:22:32.822Z,12.69
2022-11-06T18:24:59.612Z,12.92
2022-11-06T18:27:26.885Z,12.94
2022-11-06T18:29:54.143Z,13.04
2022-11-06T18:32:20.942Z,13.02
2022-11-06T18:34:47.788Z,13.19
2022-11-06T18:37:14.601Z,12.68
2022-11-06T18:39:41.556Z,12.48
2022-11-06T18:42:08.312Z,12.42
2022-11-06T18:44:37.683Z,12.67
2022-11-06T18:47:04.513Z,12.81
2022-11-06T18:49:32.682Z,12.67
2022-11-06T18:51:59.962Z,12.84
2022-11-06T18:54:29.621Z,12.98
2022-11-06T18:56:56.544Z,13.11
2022-11-06T18:59:24.481Z,13.12
2022-11-06T19:01:52.101Z,12.94
2022-11-06T19:04:19.504Z,13.00
2022-11-06T19:06:46.490Z,12.93
2022-11-06T19:09:13.755Z,13.08
2022-11-06T19:14:07.786Z,12.94
2022-11-06T19:16:36.343Z,12.60
2022-11-06T19:19:05.938Z,12.64
2022-11-06T19:21:33.455Z,12.53
2022-11-06T19:24:05.177Z,12.58
2022-11-06T19:26:33.748Z,12.68
2022-11-06T19:29:03.023Z,12.68
2022-11-06T19:31:30.575Z,12.72
2022-11-06T19:34:02.610Z,12.79
2022-11-06T19:36:29.503Z,12.62
2022-11-06T19:38:58.717Z,12.62
2022-11-06T19:41:26.874Z,12.53
2022-11-06T19:43:53.793Z,12.58
2022-11-06T19:46:25.067Z,12.61
2022-11-06T19:48:54.521Z,12.33
2022-11-06T19:51:21.432Z,12.64
2022-11-06T19:53:51.682Z,12.77
2022-11-06T19:56:19.118Z,12.24
2022-11-06T19:58:45.963Z,12.51
2022-11-06T20:01:15.135Z,11.98
2022-11-06T20:03:43.924Z,12.44
2022-11-06T20:06:11.159Z,12.59
2022-11-06T20:08:39.813Z,12.83
2022-11-06T20:11:10.102Z,12.65
2022-11-06T20:13:37.051Z,12.59
2022-11-06T20:16:04.719Z,12.61
2022-11-06T20:18:32.191Z,12.75
2022-11-06T20:21:03.846Z,12.88
2022-11-06T20:23:32.100Z,12.95
2022-11-06T20:25:58.971Z,12.33
2022-11-06T20:28:25.862Z,12.55
2022-11-06T20:30:52.822Z,11.79
2022-11-06T20:33:19.771Z,11.89
2022-11-06T20:35:46.732Z,11.98
2022-11-06T20:38:14.729Z,11.99
2022-11-06T20:40:41.914Z,11.62
2022-11-06T20:43:09.232Z,11.73
2022-11-06T20:45:37.961Z,12.00
2022-11-06T20:48:05.461Z,12.07
2022-11-06T20:50:33.793Z,12.21
2022-11-06T20:53:00.765Z,12.24
2022-11-06T20:55:27.830Z,12.32
2022-11-06T20:57:54.602Z,12.34
2022-11-06T21:00:21.643Z,12.22
2022-11-06T21:02:48.731Z,12.18
2022-11-06T21:05:15.580Z,12.43
2022-11-06T21:07:45.280Z,12.34
2022-11-06T21:10:12.462Z,12.60
2022-11-06T21:12:39.573Z,12.26
2022-11-06T21:15:07.372Z,11.45
2022-11-06T21:17:35.066Z,12.16
2022-11-06T21:20:03.073Z,12.06
2022-11-06T21:22:29.949Z,12.00
2022-11-06T21:24:56.799Z,12.35
2022-11-06T21:27:23.572Z,12.40
2022-11-06T21:29:50.284Z,11.93
2022-11-06T21:32:17.071Z,12.44
2022-11-06T21:34:43.752Z,11.74
2022-11-06T21:37:11.532Z,12.05
2022-11-06T21:39:39.529Z,11.99
2022-11-06T21:42:07.931Z,12.00
2022-11-06T21:44:34.671Z,12.23
2022-11-06T21:47:02.451Z,12.23
2022-11-06T21:49:29.432Z,12.45
2022-11-06T21:52:16.082Z,11.97
2022-11-06T21:55:01.225Z,12.30
2022-11-06T21:57:30.292Z,12.54
2022-11-06T21:59:57.640Z,12.69
2022-11-06T22:02:24.534Z,12.69
2022-11-06T22:04:51.414Z,12.28
2022-11-06T22:07:18.082Z,11.54
2022-11-06T22:09:44.781Z,11.74
2022-11-06T22:12:11.571Z,12.12
2022-11-06T22:14:38.293Z,11.99
2022-11-06T22:17:05.253Z,12.37
2022-11-06T22:19:32.222Z,12.44
2022-11-06T22:21:59.138Z,12.04
2022-11-06T22:24:25.929Z,12.59
2022-11-06T22:26:54.652Z,12.62
2022-11-06T22:29:21.541Z,12.66
2022-11-06T22:31:48.873Z,12.92
2022-11-06T22:34:15.661Z,12.98
2022-11-06T22:36:42.545Z,13.10
2022-11-06T22:39:10.058Z,13.08
2022-11-06T22:41:37.651Z,13.09
2022-11-06T22:44:06.298Z,13.11
2022-11-06T22:46:34.034Z,13.09
2022-11-06T22:49:01.731Z,13.32
2022-11-06T22:51:29.693Z,13.13
2022-11-06T22:53:57.305Z,13.35
2022-11-06T22:56:24.764Z,13.46
2022-11-06T22:58:55.141Z,13.35
2022-11-06T23:01:25.979Z,13.34
2022-11-06T23:03:57.932Z,13.39
2022-11-06T23:06:25.569Z,13.53
2022-11-06T23:08:52.805Z,13.61
2022-11-06T23:11:19.702Z,13.42
2022-11-06T23:13:46.705Z,13.65
2022-11-06T23:16:16.003Z,13.59
2022-11-06T23:18:42.773Z,13.52
2022-11-06T23:21:18.193Z,13.18
2022-11-06T23:23:45.431Z,12.95
2022-11-06T23:26:17.906Z,12.68
2022-11-06T23:28:45.261Z,12.45
2022-11-06T23:31:12.668Z,12.70
2022-11-06T23:33:39.640Z,12.72
2022-11-06T23:36:07.141Z,12.82
2022-11-06T23:38:33.941Z,12.36
2022-11-06T23:41:35.233Z,12.33
2022-11-06T23:44:02.748Z,12.10
2022-11-06T23:46:33.802Z,12.04
2022-11-06T23:49:00.513Z,12.02
2022-11-06T23:51:27.736Z,11.80
2022-11-06T23:53:56.872Z,11.68
2022-11-06T23:56:23.542Z,11.86
2022-11-06T23:58:50.259Z,11.93
